createdAt,value
2022-08-04T00:01:45.324Z,55.68
2022-08-04T00:04:37.766Z,55.99
2022-08-04T00:07:19.059Z,55.81
2022-08-04T00:09:56.401Z,56.03
2022-08-04T00:12:28.089Z,55.48
2022-08-04T00:15:00.381Z,56.00
2022-08-04T00:17:39.570Z,57.04
2022-08-04T00:20:09.468Z,57.48
2022-08-04T00:22:40.045Z,57.46
2022-08-04T00:25:06.880Z,57.27
2022-08-04T00:27:36.397Z,57.17
2022-08-04T00:30:04.048Z,57.30
2022-08-04T00:32:34.311Z,57.63
2022-08-04T00:35:02.395Z,57.78
2022-08-04T00:37:29.050Z,57.71
2022-08-04T00:39:57.099Z,58.90
2022-08-04T00:43:11.602Z,59.84
2022-08-04T00:46:16.278Z,60.57
2022-08-04T00:49:01.477Z,60.60
2022-08-04T00:51:33.719Z,61.85
2022-08-04T00:54:13.998Z,62.31
2022-08-04T00:57:30.177Z,62.98
2022-08-04T01:00:13.987Z,63.50
2022-08-04T01:02:52.637Z,63.44
2022-08-04T01:05:42.526Z,63.43
2022-08-04T01:08:31.291Z,63.43
2022-08-04T01:11:24.693Z,63.35
2022-08-04T01:14:19.193Z,64.46
2022-08-04T01:16:51.852Z,64.12
2022-08-04T01:19:44.767Z,63.34
2022-08-04T01:22:20.094Z,63.89
2022-08-04T01:25:20.682Z,63.38
2022-08-04T01:27:59.042Z,63.60
2022-08-04T01:30:27.788Z,64.33
2022-08-04T01:33:03.189Z,64.79
2022-08-04T01:35:47.844Z,65.79
2022-08-04T01:38:30.820Z,65.61
2022-08-04T01:41:03.002Z,65.37
2022-08-04T01:43:32.551Z,65.11
2022-08-04T01:46:02.189Z,64.11
2022-08-04T01:48:30.543Z,63.86
2022-08-04T01:50:59.285Z,64.44
2022-08-04T01:53:32.572Z,64.77
2022-08-04T01:56:02.863Z,65.16
2022-08-04T01:58:31.385Z,65.99
2022-08-04T02:01:05.264Z,65.32
2022-08-04T02:04:20.461Z,65.09
2022-08-04T02:06:59.202Z,65.50
2022-08-04T02:10:07.901Z,65.98
2022-08-04T02:12:56.222Z,66.40
2022-08-04T02:15:42.568Z,66.63
2022-08-04T02:18:28.175Z,68.17
2022-08-04T02:21:02.178Z,67.91
2022-08-04T02:23:41.087Z,67.22
2022-08-04T02:26:29.213Z,67.54
2022-08-04T02:29:19.514Z,67.60
2022-08-04T02:32:06.967Z,67.31
2022-08-04T02:34:33.501Z,67.82
2022-08-04T02:37:04.141Z,67.50
2022-08-04T02:39:48.577Z,67.06
2022-08-04T02:42:16.848Z,66.56
2022-08-04T02:44:45.719Z,66.38
2022-08-04T02:47:13.330Z,66.81
2022-08-04T02:49:42.051Z,67.12
2022-08-04T02:52:10.493Z,66.38
2022-08-04T02:54:40.289Z,66.24
2022-08-04T02:57:12.219Z,66.75
2022-08-04T03:00:16.392Z,68.39
2022-08-04T03:02:59.532Z,67.24
2022-08-04T03:05:32.054Z,68.08
2022-08-04T03:08:30.707Z,68.71
2022-08-04T03:11:18.877Z,69.01
2022-08-04T03:13:56.707Z,69.19
2022-08-04T03:16:46.631Z,69.53
2022-08-04T03:19:33.692Z,69.64
2022-08-04T03:22:41.946Z,69.30
2022-08-04T03:25:56.717Z,69.29
2022-08-04T03:28:24.322Z,69.80
2022-08-04T03:31:25.408Z,70.66
2022-08-04T03:34:00.831Z,70.34
2022-08-04T03:37:16.418Z,69.89
2022-08-04T03:40:10.700Z,69.79
2022-08-04T03:43:08.525Z,70.15
2022-08-04T03:46:17.093Z,70.47
2022-08-04T03:49:09.013Z,71.94
2022-08-04T03:52:53.573Z,72.44
2022-08-04T03:55:54.483Z,72.48
2022-08-04T03:58:40.359Z,73.01
2022-08-04T04:01:13.925Z,72.48
2022-08-04T04:03:52.566Z,72.45
2022-08-04T04:06:35.433Z,73.29
2022-08-04T04:09:22.043Z,72.49
2022-08-04T04:12:16.437Z,71.58
2022-08-04T04:14:53.845Z,72.23
2022-08-04T04:17:45.539Z,72.58
2022-08-04T04:20:32.885Z,72.33
2022-08-04T04:23:18.182Z,72.28
2022-08-04T04:26:20.619Z,72.10
2022-08-04T04:29:16.729Z,71.94
2022-08-04T04:31:46.059Z,72.26
2022-08-04T04:34:48.035Z,70.91
2022-08-04T04:37:27.776Z,69.40
2022-08-04T04:40:19.122Z,68.88
2022-08-04T04:42:51.903Z,69.07
2022-08-04T04:45:53.858Z,68.60
2022-08-04T04:48:41.795Z,68.60
2022-08-04T04:51:11.397Z,68.61
2022-08-04T04:54:05.133Z,68.06
2022-08-04T04:56:56.179Z,67.89
2022-08-04T04:59:27.882Z,66.97
2022-08-04T05:02:07.697Z,66.88
2022-08-04T05:05:10.412Z,67.08
2022-08-04T05:07:43.142Z,66.85
2022-08-04T05:10:29.304Z,67.60
2022-08-04T05:14:39.069Z,67.76
2022-08-04T05:16:47.397Z,67.09
2022-08-04T05:19:44.117Z,65.88
2022-08-04T05:22:37.961Z,66.15
2022-08-04T05:25:13.312Z,65.78
2022-08-04T05:27:51.618Z,65.82
2022-08-04T05:30:19.023Z,65.21
2022-08-04T05:32:50.825Z,65.16
2022-08-04T05:35:52.148Z,63.97
2022-08-04T05:38:22.485Z,63.37
2022-08-04T05:40:50.417Z,62.29
2022-08-04T05:43:18.262Z,61.55
2022-08-04T05:45:48.383Z,61.47
2022-08-04T05:48:16.645Z,60.74
2022-08-04T05:50:45.399Z,60.15
2022-08-04T05:53:15.337Z,58.88
2022-08-04T05:55:48.702Z,59.10
2022-08-04T05:58:29.586Z,58.05
2022-08-04T06:00:58.000Z,57.13
2022-08-04T06:03:27.265Z,56.31
2022-08-04T06:05:55.202Z,55.55
2022-08-04T06:08:22.000Z,54.22
2022-08-04T06:10:51.271Z,54.31
2022-08-04T06:13:47.979Z,53.60
2022-08-04T06:16:28.517Z,53.45
2022-08-04T06:20:03.051Z,52.86
2022-08-04T06:21:51.229Z,53.78
2022-08-04T06:24:20.679Z,52.01
2022-08-04T06:26:50.217Z,51.41
2022-08-04T06:29:37.433Z,51.32
2022-08-04T06:32:27.916Z,50.95
2022-08-04T06:35:02.103Z,50.20
2022-08-04T06:37:43.422Z,48.39
2022-08-04T06:40:29.613Z,46.49
2022-08-04T06:43:01.666Z,46.53
2022-08-04T06:45:29.005Z,46.68
2022-08-04T06:47:56.482Z,45.58
2022-08-04T06:51:31.438Z,45.86
2022-08-04T06:53:10.533Z,44.81
2022-08-04T06:55:38.240Z,45.54
2022-08-04T06:58:06.309Z,45.26
2022-08-04T07:00:35.074Z,45.15
2022-08-04T07:03:03.691Z,45.26
2022-08-04T07:05:31.650Z,46.18
2022-08-04T07:07:59.183Z,45.04
2022-08-04T07:10:28.147Z,44.03
2022-08-04T07:12:59.224Z,43.43
2022-08-04T07:15:26.532Z,43.38
2022-08-04T07:17:54.231Z,42.53
2022-08-04T07:20:33.886Z,42.22
2022-08-04T07:23:06.703Z,41.80
2022-08-04T07:25:58.505Z,42.14
2022-08-04T07:28:27.164Z,41.95
2022-08-04T07:30:55.048Z,41.64
2022-08-04T07:33:22.475Z,42.02
2022-08-04T07:36:09.413Z,42.29
2022-08-04T07:38:48.376Z,41.92
2022-08-04T07:41:38.327Z,41.37
2022-08-04T07:44:05.811Z,40.46
2022-08-04T07:46:32.634Z,40.00
2022-08-04T07:49:02.746Z,39.43
2022-08-04T07:51:30.780Z,39.28
2022-08-04T07:53:58.759Z,38.80
2022-08-04T07:56:26.626Z,38.87
2022-08-04T07:58:53.304Z,39.25
2022-08-04T08:01:20.362Z,38.84
2022-08-04T08:03:48.207Z,38.65
2022-08-04T08:06:17.524Z,38.99
2022-08-04T08:09:12.362Z,38.56
2022-08-04T08:12:37.647Z,37.99
2022-08-04T08:14:32.114Z,37.96
2022-08-04T08:17:02.751Z,37.52
2022-08-04T08:19:31.335Z,37.99
2022-08-04T08:22:00.512Z,37.34
2022-08-04T08:24:35.031Z,37.04
2022-08-04T08:27:04.726Z,37.24
2022-08-04T08:29:36.397Z,37.35
2022-08-04T08:32:08.481Z,37.18
2022-08-04T08:34:37.733Z,37.16
2022-08-04T08:37:26.337Z,36.63
2022-08-04T08:39:58.232Z,36.31
2022-08-04T08:42:43.581Z,35.92
2022-08-04T08:45:33.663Z,35.87
2022-08-04T08:48:15.634Z,35.06
2022-08-04T08:50:59.763Z,34.90
2022-08-04T08:53:38.149Z,34.90
2022-08-04T08:56:42.180Z,34.97
2022-08-04T08:59:29.991Z,34.69
2022-08-04T09:02:21.936Z,34.82
2022-08-04T09:04:57.559Z,34.46
2022-08-04T09:07:30.281Z,34.66
2022-08-04T09:10:03.394Z,34.33
2022-08-04T09:12:41.640Z,33.84
2022-08-04T09:15:22.202Z,33.59
2022-08-04T09:17:57.411Z,33.48
2022-08-04T09:20:44.069Z,33.89
2022-08-04T09:23:36.198Z,32.97
2022-08-04T09:26:35.164Z,33.17
2022-08-04T09:29:13.851Z,33.29
2022-08-04T09:32:06.680Z,32.76
2022-08-04T09:35:11.897Z,32.36
2022-08-04T09:38:02.788Z,32.84
2022-08-04T09:40:55.153Z,32.37
2022-08-04T09:43:57.051Z,32.46
2022-08-04T09:46:42.798Z,32.05
2022-08-04T09:49:27.781Z,32.06
2022-08-04T09:52:11.726Z,32.35
2022-08-04T09:54:47.290Z,32.79
2022-08-04T09:57:36.963Z,32.79
2022-08-04T10:00:10.041Z,33.06
2022-08-04T10:02:40.527Z,33.25
2022-08-04T10:05:16.446Z,32.98
2022-08-04T10:08:15.815Z,32.89
2022-08-04T10:10:59.688Z,32.89
2022-08-04T10:13:44.532Z,32.49
2022-08-04T10:16:46.007Z,31.90
2022-08-04T10:19:37.022Z,32.58
2022-08-04T10:22:34.550Z,32.36
2022-08-04T10:25:38.165Z,32.07
2022-08-04T10:28:22.227Z,32.08
2022-08-04T10:31:00.716Z,32.45
2022-08-04T10:33:57.962Z,32.62
2022-08-04T10:36:30.949Z,33.23
2022-08-04T10:39:02.222Z,32.73
2022-08-04T10:41:54.154Z,31.90
2022-08-04T10:44:41.982Z,32.11
2022-08-04T10:47:16.471Z,32.11
2022-08-04T10:49:55.728Z,32.52
2022-08-04T10:52:34.584Z,32.82
2022-08-04T10:55:07.935Z,32.97
2022-08-04T10:57:42.770Z,32.82
2022-08-04T11:00:16.328Z,31.75
2022-08-04T11:03:05.837Z,31.28
2022-08-04T11:05:54.007Z,30.83
2022-08-04T11:08:34.660Z,31.44
2022-08-04T11:12:00.429Z,32.18
2022-08-04T11:14:46.870Z,31.91
2022-08-04T11:17:21.337Z,32.29
2022-08-04T11:20:33.015Z,32.03
2022-08-04T11:23:11.847Z,31.63
2022-08-04T11:25:47.256Z,31.18
2022-08-04T11:28:37.485Z,31.78
2022-08-04T11:31:09.823Z,31.83
2022-08-04T11:33:58.127Z,32.39
2022-08-04T11:36:41.825Z,32.60
2022-08-04T11:39:15.878Z,32.13
2022-08-04T11:41:51.438Z,32.53
2022-08-04T11:44:33.081Z,31.43
2022-08-04T11:47:05.004Z,31.98
2022-08-04T11:49:57.106Z,31.31
2022-08-04T11:52:27.690Z,31.96
2022-08-04T11:54:55.787Z,31.42
2022-08-04T11:57:35.320Z,31.64
2022-08-04T12:00:07.549Z,32.54
2022-08-04T12:02:56.550Z,31.94
2022-08-04T12:05:35.650Z,31.31
2022-08-04T12:08:49.290Z,31.67
2022-08-04T12:11:35.885Z,31.74
2022-08-04T12:14:30.785Z,31.62
2022-08-04T12:17:01.970Z,32.33
2022-08-04T12:20:03.543Z,32.72
2022-08-04T12:22:41.078Z,32.15
2022-08-04T12:25:12.057Z,31.56
2022-08-04T12:27:53.575Z,31.47
2022-08-04T12:30:58.252Z,31.69
2022-08-04T12:33:12.834Z,31.71
2022-08-04T12:36:10.087Z,31.79
2022-08-04T12:38:48.534Z,31.79
2022-08-04T12:41:23.627Z,30.74
2022-08-04T12:43:50.655Z,31.00
2022-08-04T12:46:26.015Z,30.82
2022-08-04T12:48:53.163Z,30.94
2022-08-04T12:52:06.108Z,31.03
2022-08-04T12:54:09.508Z,31.86
2022-08-04T12:56:37.160Z,31.41
2022-08-04T12:59:12.743Z,31.77
2022-08-04T13:02:07.883Z,31.28
2022-08-04T13:04:34.053Z,32.19
2022-08-04T13:07:29.926Z,32.01
2022-08-04T13:09:58.119Z,31.60
2022-08-04T13:12:32.596Z,31.84
2022-08-04T13:15:10.918Z,31.91
2022-08-04T13:18:14.734Z,31.75
2022-08-04T13:20:43.513Z,31.97
2022-08-04T13:23:14.486Z,31.43
2022-08-04T13:26:42.822Z,31.86
2022-08-04T13:28:43.204Z,31.46
2022-08-04T13:31:16.740Z,31.93
2022-08-04T13:33:47.030Z,32.08
2022-08-04T13:36:15.901Z,32.67
2022-08-04T13:38:59.925Z,32.19
2022-08-04T13:41:31.147Z,33.03
2022-08-04T13:44:18.169Z,33.22
2022-08-04T13:47:00.329Z,34.07
2022-08-04T13:49:54.491Z,33.73
2022-08-04T13:52:13.890Z,33.58
2022-08-04T13:54:46.194Z,33.53
2022-08-04T13:57:17.519Z,33.88
2022-08-04T13:59:51.845Z,34.24
2022-08-04T14:02:46.736Z,34.02
2022-08-04T14:05:35.089Z,33.92
2022-08-04T14:08:08.691Z,33.94
2022-08-04T14:10:37.014Z,34.53
2022-08-04T14:13:05.283Z,35.03
2022-08-04T14:16:01.098Z,34.26
2022-08-04T14:18:29.572Z,34.30
2022-08-04T14:20:59.822Z,34.47
2022-08-04T14:23:31.903Z,34.66
2022-08-04T14:25:59.883Z,35.45
2022-08-04T14:29:01.161Z,34.92
2022-08-04T14:31:19.838Z,35.05
2022-08-04T14:34:02.085Z,35.51
2022-08-04T14:37:13.955Z,34.94
2022-08-04T14:40:17.255Z,35.24
2022-08-04T14:42:54.533Z,35.18
2022-08-04T14:45:54.726Z,34.84
2022-08-04T14:48:22.016Z,35.21
2022-08-04T14:50:51.054Z,34.78
2022-08-04T14:53:23.050Z,34.44
2022-08-04T14:55:52.301Z,34.03
2022-08-04T14:58:39.074Z,34.27
2022-08-04T15:01:12.188Z,34.38
2022-08-04T15:03:52.418Z,34.53
2022-08-04T15:06:30.628Z,34.13
2022-08-04T15:09:00.488Z,34.16
2022-08-04T15:11:27.693Z,34.55
2022-08-04T15:13:56.987Z,35.11
2022-08-04T15:16:25.025Z,34.69
2022-08-04T15:18:54.815Z,35.01
2022-08-04T15:21:26.153Z,35.64
2022-08-04T15:23:52.820Z,36.10
2022-08-04T15:26:40.673Z,36.31
2022-08-04T15:29:16.996Z,36.21
2022-08-04T15:32:06.046Z,36.48
2022-08-04T15:34:49.999Z,35.92
2022-08-04T15:37:31.273Z,35.57
2022-08-04T15:40:15.155Z,36.00
2022-08-04T15:43:13.292Z,36.38
2022-08-04T15:46:33.034Z,35.72
2022-08-04T15:48:39.005Z,36.55
2022-08-04T15:51:08.547Z,36.43
2022-08-04T15:54:02.794Z,36.11
2022-08-04T15:56:27.722Z,36.76
2022-08-04T15:58:55.613Z,36.44
2022-08-04T16:01:22.767Z,36.11
2022-08-04T16:04:00.470Z,36.29
2022-08-04T16:06:29.163Z,36.53
2022-08-04T16:09:01.491Z,36.50
2022-08-04T16:11:32.703Z,36.40
2022-08-04T16:13:59.788Z,36.38
2022-08-04T16:16:30.651Z,36.58
2022-08-04T16:19:06.311Z,37.00
2022-08-04T16:21:48.758Z,36.79
2022-08-04T16:24:40.896Z,37.13
2022-08-04T16:27:12.244Z,36.91
2022-08-04T16:29:39.761Z,36.82
2022-08-04T16:32:06.940Z,37.00
2022-08-04T16:34:47.685Z,36.23
2022-08-04T16:37:18.993Z,37.10
2022-08-04T16:39:50.821Z,37.23
2022-08-04T16:42:27.550Z,36.78
2022-08-04T16:45:00.512Z,36.38
2022-08-04T16:47:48.628Z,36.98
2022-08-04T16:50:24.653Z,37.15
2022-08-04T16:52:53.287Z,37.54
2022-08-04T16:55:22.112Z,37.69
2022-08-04T16:57:54.228Z,37.46
2022-08-04T17:00:32.687Z,37.60
2022-08-04T17:03:03.431Z,37.49
2022-08-04T17:05:39.743Z,37.37
2022-08-04T17:10:56.316Z,37.61
2022-08-04T17:14:04.755Z,38.14
2022-08-04T17:16:21.215Z,38.01
2022-08-04T17:18:53.581Z,38.34
2022-08-04T17:21:23.831Z,38.02
2022-08-04T17:24:16.490Z,38.78
2022-08-04T17:26:51.759Z,38.42
2022-08-04T17:29:21.783Z,38.31
2022-08-04T17:31:48.453Z,38.18
2022-08-04T17:34:19.452Z,39.36
2022-08-04T17:36:47.705Z,39.34
2022-08-04T17:39:21.761Z,39.28
2022-08-04T17:41:49.636Z,39.33
2022-08-04T17:44:17.690Z,40.13
2022-08-04T17:46:48.506Z,40.15
2022-08-04T17:49:18.427Z,40.30
2022-08-04T17:52:06.565Z,40.47
2022-08-04T17:54:40.194Z,41.05
2022-08-04T17:57:21.355Z,41.53
2022-08-04T17:59:57.549Z,41.68
2022-08-04T18:02:32.708Z,41.42
2022-08-04T18:05:05.899Z,41.95
2022-08-04T18:08:40.017Z,42.42
2022-08-04T18:10:44.658Z,43.22
2022-08-04T18:13:27.878Z,43.07
2022-08-04T18:16:04.909Z,43.77
2022-08-04T18:18:31.755Z,44.35
2022-08-04T18:21:03.044Z,46.35
2022-08-04T18:23:32.949Z,45.95
2022-08-04T18:26:02.230Z,46.88
2022-08-04T18:28:31.320Z,47.23
2022-08-04T18:31:01.189Z,46.21
2022-08-04T18:33:39.642Z,46.12
2022-08-04T18:36:33.320Z,46.22
2022-08-04T18:38:59.147Z,45.82
2022-08-04T18:41:51.521Z,45.33
2022-08-04T18:44:28.215Z,46.03
2022-08-04T18:46:56.254Z,46.03
2022-08-04T18:50:32.051Z,46.14
2022-08-04T18:52:15.113Z,46.17
2022-08-04T18:54:42.812Z,46.84
2022-08-04T18:57:32.244Z,46.71
2022-08-04T18:59:56.762Z,46.79
2022-08-04T19:02:26.468Z,47.08
2022-08-04T19:04:53.330Z,48.12
2022-08-04T19:07:29.507Z,47.60
2022-08-04T19:09:58.556Z,47.98
2022-08-04T19:12:28.358Z,48.65
2022-08-04T19:15:08.475Z,49.34
2022-08-04T19:17:55.099Z,48.68
2022-08-04T19:20:28.463Z,48.85
2022-08-04T19:24:11.143Z,49.58
2022-08-04T19:26:03.011Z,48.61
2022-08-04T19:28:34.817Z,48.98
2022-08-04T19:31:07.102Z,49.15
2022-08-04T19:33:58.328Z,49.99
2022-08-04T19:36:27.564Z,50.34
2022-08-04T19:38:56.150Z,50.39
2022-08-04T19:41:22.946Z,50.36
2022-08-04T19:43:53.152Z,50.71
2022-08-04T19:46:19.998Z,50.57
2022-08-04T19:48:59.320Z,50.50
2022-08-04T19:51:28.795Z,50.96
2022-08-04T19:54:03.948Z,50.93
2022-08-04T19:56:40.353Z,51.00
2022-08-04T19:59:10.900Z,51.41
2022-08-04T20:01:44.226Z,51.62
2022-08-04T20:04:11.648Z,51.34
2022-08-04T20:06:39.497Z,51.83
2022-08-04T20:09:26.149Z,51.92
2022-08-04T20:11:53.111Z,51.81
2022-08-04T20:14:22.896Z,52.36
2022-08-04T20:16:59.920Z,52.84
2022-08-04T20:19:27.002Z,52.78
2022-08-04T20:21:56.561Z,53.05
2022-08-04T20:24:39.237Z,53.26
2022-08-04T20:27:15.601Z,53.08
2022-08-04T20:29:48.492Z,53.53
2022-08-04T20:32:19.191Z,53.86
2022-08-04T20:34:46.803Z,53.87
2022-08-04T20:37:15.383Z,53.90
2022-08-04T20:39:42.103Z,54.32
2022-08-04T20:42:11.493Z,54.29
2022-08-04T20:47:31.187Z,54.08
2022-08-04T20:50:04.455Z,54.49
2022-08-04T20:52:33.115Z,54.34
2022-08-04T20:55:04.304Z,53.73
2022-08-04T20:57:48.615Z,53.88
2022-08-04T21:00:17.643Z,54.15
2022-08-04T21:02:53.267Z,54.29
2022-08-04T21:05:20.463Z,54.70
2022-08-04T21:07:48.711Z,54.71
2022-08-04T21:10:15.725Z,54.27
2022-08-04T21:12:43.580Z,54.80
2022-08-04T21:15:25.030Z,54.99
2022-08-04T21:17:57.959Z,54.95
2022-08-04T21:20:29.406Z,54.56
2022-08-04T21:22:59.585Z,55.16
2022-08-04T21:25:28.800Z,56.42
2022-08-04T21:27:58.830Z,55.91
2022-08-04T21:30:26.714Z,56.18
2022-08-04T21:35:40.677Z,55.75
2022-08-04T21:38:16.676Z,55.74
2022-08-04T21:40:54.316Z,56.24
2022-08-04T21:43:23.730Z,56.18
2022-08-04T21:45:55.099Z,56.58
2022-08-04T21:48:22.758Z,56.79
2022-08-04T21:50:50.768Z,57.32
2022-08-04T21:53:19.873Z,57.27
2022-08-04T21:56:04.907Z,57.57
2022-08-04T21:58:34.006Z,57.99
2022-08-04T22:01:00.627Z,57.56
2022-08-04T22:03:53.308Z,57.88
2022-08-04T22:06:19.618Z,57.57
2022-08-04T22:08:49.246Z,58.00
2022-08-04T22:11:43.815Z,57.91
2022-08-04T22:14:15.292Z,58.46
2022-08-04T22:16:41.992Z,58.43
2022-08-04T22:19:08.775Z,58.80
2022-08-04T22:21:39.233Z,59.08
2022-08-04T22:24:13.784Z,59.13
2022-08-04T22:26:41.274Z,59.52
2022-08-04T22:29:14.494Z,60.01
2022-08-04T22:31:53.778Z,60.96
2022-08-04T22:34:23.942Z,61.01
2022-08-04T22:36:50.674Z,61.71
2022-08-04T22:39:17.580Z,62.05
2022-08-04T22:41:48.525Z,62.44
2022-08-04T22:44:29.609Z,62.62
2022-08-04T22:46:59.058Z,63.17
2022-08-04T22:49:31.439Z,63.48
2022-08-04T22:51:59.120Z,63.96
2022-08-04T22:54:25.930Z,64.92
2022-08-04T22:56:54.961Z,65.34
2022-08-04T22:59:23.454Z,64.97
2022-08-04T23:01:58.892Z,65.32
2022-08-04T23:04:28.389Z,64.98
2022-08-04T23:06:54.980Z,65.51
2022-08-04T23:09:22.154Z,65.00
2022-08-04T23:12:24.245Z,64.79
2022-08-04T23:14:52.143Z,65.19
2022-08-04T23:17:18.796Z,65.69
2022-08-04T23:19:57.868Z,65.50
2022-08-04T23:22:42.264Z,66.04
2022-08-04T23:25:16.446Z,66.88
2022-08-04T23:27:50.500Z,67.17
2022-08-04T23:30:19.621Z,67.12
2022-08-04T23:32:46.206Z,66.70
2022-08-04T23:35:15.211Z,67.62
2022-08-04T23:37:56.032Z,68.30
2022-08-04T23:40:30.228Z,69.16
2022-08-04T23:42:59.389Z,69.92
2022-08-04T23:46:03.648Z,70.17
2022-08-04T23:48:16.113Z,69.84
2022-08-04T23:50:45.391Z,69.09
2022-08-04T23:53:18.692Z,69.56
2022-08-04T23:55:49.076Z,69.12
2022-08-04T23:58:18.638Z,69.31
